createdAt,value
2023-02-17T00:01:15.177Z,82.48
2023-02-17T00:04:04.592Z,82.78
2023-02-17T00:06:54.364Z,82.80
2023-02-17T00:09:46.905Z,82.54
2023-02-17T00:12:38.242Z,82.29
2023-02-17T00:15:27.493Z,82.17
2023-02-17T00:18:16.723Z,82.33
2023-02-17T00:21:18.627Z,82.80
2023-02-17T00:24:08.265Z,83.13
2023-02-17T00:26:57.589Z,82.54
2023-02-17T00:29:48.216Z,82.16
2023-02-17T00:32:38.677Z,82.77
2023-02-17T00:35:28.114Z,82.60
2023-02-17T00:38:17.871Z,82.79
2023-02-17T00:41:07.479Z,83.61
2023-02-17T00:43:57.131Z,83.38
2023-02-17T00:46:49.115Z,83.39
2023-02-17T00:49:38.889Z,82.90
2023-02-17T00:52:28.400Z,82.36
2023-02-17T00:55:17.946Z,83.02
2023-02-17T00:58:07.161Z,83.10
2023-02-17T01:00:58.084Z,82.74
2023-02-17T01:03:49.291Z,82.88
2023-02-17T01:06:41.032Z,83.21
2023-02-17T01:09:30.238Z,83.35
2023-02-17T01:12:19.510Z,83.49
2023-02-17T01:15:09.824Z,83.48
2023-02-17T01:17:59.078Z,83.08
2023-02-17T01:20:49.805Z,83.40
2023-02-17T01:23:39.101Z,82.80
2023-02-17T01:26:33.007Z,83.11
2023-02-17T01:29:23.734Z,83.11
2023-02-17T01:32:13.314Z,83.36
2023-02-17T01:35:02.636Z,83.10
2023-02-17T01:37:53.368Z,83.61
2023-02-17T01:40:48.510Z,83.30
2023-02-17T01:43:38.136Z,83.47
2023-02-17T01:46:27.354Z,83.67
2023-02-17T01:49:27.975Z,83.98
2023-02-17T01:52:25.802Z,83.89
2023-02-17T01:55:20.850Z,83.96
2023-02-17T01:58:13.019Z,83.94
2023-02-17T02:01:06.409Z,83.98
2023-02-17T02:03:56.170Z,83.11
2023-02-17T02:06:46.638Z,83.43
2023-02-17T02:09:41.490Z,83.45
2023-02-17T02:12:34.625Z,83.37
2023-02-17T02:15:29.150Z,82.94
2023-02-17T02:18:43.904Z,83.16
2023-02-17T02:22:00.679Z,83.14
2023-02-17T02:25:04.788Z,82.63
2023-02-17T02:28:12.177Z,82.99
2023-02-17T02:31:26.223Z,82.98
2023-02-17T02:34:22.180Z,82.41
2023-02-17T02:37:18.153Z,83.36
2023-02-17T02:40:12.601Z,83.73
2023-02-17T02:43:04.592Z,82.72
2023-02-17T02:45:54.063Z,83.08
2023-02-17T02:48:43.721Z,82.63
2023-02-17T02:51:50.082Z,83.14
2023-02-17T02:54:52.140Z,82.93
2023-02-17T02:57:51.282Z,83.41
2023-02-17T03:00:54.440Z,83.15
2023-02-17T03:03:52.100Z,83.15
2023-02-17T03:06:50.318Z,82.57
2023-02-17T03:09:40.549Z,83.74
2023-02-17T03:12:30.531Z,83.58
2023-02-17T03:15:26.775Z,83.18
2023-02-17T03:18:16.503Z,83.18
2023-02-17T03:21:13.657Z,82.65
2023-02-17T03:24:06.768Z,83.09
2023-02-17T03:26:55.969Z,83.62
2023-02-17T03:29:45.327Z,83.64
2023-02-17T03:32:34.631Z,82.90
2023-02-17T03:35:23.911Z,83.10
2023-02-17T03:38:13.220Z,83.34
2023-02-17T03:41:03.894Z,83.23
2023-02-17T03:43:53.189Z,83.33
2023-02-17T03:46:42.423Z,83.29
2023-02-17T03:49:32.293Z,83.11
2023-02-17T03:52:21.500Z,84.17
2023-02-17T03:55:10.713Z,84.62
2023-02-17T03:58:01.619Z,85.35
2023-02-17T04:00:51.063Z,84.99
2023-02-17T04:03:41.334Z,86.16
2023-02-17T04:06:30.715Z,86.54
2023-02-17T04:09:19.945Z,87.08
2023-02-17T04:12:09.287Z,87.45
2023-02-17T04:14:59.948Z,88.33
2023-02-17T04:17:49.234Z,88.73
2023-02-17T04:20:38.591Z,89.83
2023-02-17T04:23:28.339Z,89.38
2023-02-17T04:26:17.729Z,90.21
2023-02-17T04:29:07.463Z,90.40
2023-02-17T04:31:58.224Z,90.63
2023-02-17T04:34:47.448Z,91.10
2023-02-17T04:37:36.896Z,90.74
2023-02-17T04:40:26.159Z,91.13
2023-02-17T04:43:15.318Z,91.53
2023-02-17T04:46:05.718Z,91.55
2023-02-17T04:48:56.635Z,91.57
2023-02-17T04:51:45.983Z,91.89
2023-02-17T04:54:35.388Z,92.19
2023-02-17T04:57:24.675Z,92.46
2023-02-17T05:00:15.325Z,92.50
2023-02-17T05:03:04.814Z,92.77
2023-02-17T05:05:55.526Z,92.89
2023-02-17T05:08:44.713Z,93.46
2023-02-17T05:11:33.877Z,92.95
2023-02-17T05:14:23.148Z,92.73
2023-02-17T05:17:12.484Z,92.13
2023-02-17T05:20:02.439Z,91.51
2023-02-17T05:22:53.413Z,90.87
2023-02-17T05:25:42.725Z,91.03
2023-02-17T05:28:31.942Z,91.02
2023-02-17T05:31:21.150Z,90.80
2023-02-17T05:34:10.505Z,90.94
2023-02-17T05:36:59.726Z,90.62
2023-02-17T05:39:50.371Z,91.50
2023-02-17T05:42:39.526Z,91.38
2023-02-17T05:45:28.763Z,91.67
2023-02-17T05:48:18.355Z,91.69
2023-02-17T05:51:08.050Z,91.95
2023-02-17T05:53:57.478Z,90.85
2023-02-17T05:56:48.264Z,91.10
2023-02-17T05:59:37.562Z,91.04
2023-02-17T06:02:26.924Z,91.88
2023-02-17T06:05:16.559Z,91.51
2023-02-17T06:08:06.120Z,91.09
2023-02-17T06:10:55.648Z,89.88
2023-02-17T06:13:46.310Z,89.53
2023-02-17T06:16:35.575Z,89.28
2023-02-17T06:19:25.191Z,88.26
2023-02-17T06:22:14.362Z,87.82
2023-02-17T06:25:03.778Z,87.70
2023-02-17T06:27:53.183Z,88.36
2023-02-17T06:30:43.849Z,89.01
2023-02-17T06:33:33.134Z,88.76
2023-02-17T06:36:22.322Z,89.31
2023-02-17T06:39:11.538Z,88.77
2023-02-17T06:42:00.815Z,90.16
2023-02-17T06:44:50.086Z,90.01
2023-02-17T06:47:40.708Z,89.98
2023-02-17T06:50:29.936Z,91.37
2023-02-17T06:53:19.172Z,91.73
2023-02-17T06:56:08.839Z,92.27
2023-02-17T06:58:58.112Z,92.85
2023-02-17T07:01:49.491Z,92.44
2023-02-17T07:04:40.281Z,92.82
2023-02-17T07:07:29.814Z,93.56
2023-02-17T07:10:19.496Z,94.48
2023-02-17T07:13:08.908Z,94.99
2023-02-17T07:15:58.093Z,94.25
2023-02-17T07:18:47.279Z,94.39
2023-02-17T07:21:37.866Z,94.08
2023-02-17T07:24:27.679Z,94.12
2023-02-17T07:27:17.305Z,93.51
2023-02-17T07:30:08.349Z,93.15
2023-02-17T07:32:57.662Z,92.45
2023-02-17T07:35:46.873Z,92.53
2023-02-17T07:38:38.631Z,92.62
2023-02-17T07:41:28.782Z,92.31
2023-02-17T07:44:18.207Z,91.42
2023-02-17T07:47:07.521Z,91.01
2023-02-17T07:49:56.771Z,90.29
2023-02-17T07:52:46.159Z,89.21
2023-02-17T07:55:37.705Z,88.76
2023-02-17T07:58:27.053Z,88.39
2023-02-17T08:01:19.527Z,87.81
2023-02-17T08:04:08.744Z,87.29
2023-02-17T08:06:58.020Z,86.57
2023-02-17T08:10:04.743Z,86.76
2023-02-17T08:13:12.481Z,86.28
2023-02-17T08:16:01.663Z,85.58
2023-02-17T08:18:50.997Z,86.02
2023-02-17T08:21:40.735Z,85.68
2023-02-17T08:24:29.981Z,85.44
2023-02-17T08:27:21.642Z,84.80
2023-02-17T08:30:13.551Z,84.72
2023-02-17T08:33:02.975Z,84.32
2023-02-17T08:35:52.111Z,84.48
2023-02-17T08:38:42.272Z,84.16
2023-02-17T08:41:35.491Z,84.30
2023-02-17T08:44:24.668Z,83.87
2023-02-17T08:47:15.373Z,83.39
2023-02-17T08:50:06.175Z,83.96
2023-02-17T08:52:55.469Z,83.21
2023-02-17T08:55:49.610Z,83.48
2023-02-17T08:58:39.976Z,83.15
2023-02-17T09:01:29.252Z,83.60
2023-02-17T09:04:20.321Z,83.38
2023-02-17T09:07:12.673Z,83.49
2023-02-17T09:10:02.615Z,83.39
2023-02-17T09:12:52.123Z,82.82
2023-02-17T09:15:41.494Z,82.53
2023-02-17T09:18:30.951Z,82.31
2023-02-17T09:21:22.227Z,81.74
2023-02-17T09:24:11.517Z,81.63
2023-02-17T09:27:01.184Z,81.32
2023-02-17T09:29:50.359Z,81.37
2023-02-17T09:32:42.225Z,81.36
2023-02-17T09:35:31.762Z,80.44
2023-02-17T09:38:23.500Z,80.75
2023-02-17T09:41:20.546Z,80.02
2023-02-17T09:44:22.085Z,80.04
2023-02-17T09:47:16.395Z,79.36
2023-02-17T09:50:10.401Z,79.26
2023-02-17T09:53:07.110Z,78.91
2023-02-17T09:56:03.037Z,78.89
2023-02-17T09:58:57.116Z,78.24
2023-02-17T10:01:47.571Z,78.52
2023-02-17T10:04:42.707Z,78.19
2023-02-17T10:07:41.079Z,78.44
2023-02-17T10:10:38.281Z,77.64
2023-02-17T10:13:35.451Z,77.55
2023-02-17T10:16:37.865Z,77.82
2023-02-17T10:19:31.612Z,77.00
2023-02-17T10:22:23.888Z,77.34
2023-02-17T10:25:18.869Z,76.96
2023-02-17T10:28:15.675Z,76.74
2023-02-17T10:31:12.792Z,76.11
2023-02-17T10:34:05.557Z,76.02
2023-02-17T10:37:01.388Z,76.35
2023-02-17T10:39:52.675Z,75.43
2023-02-17T10:42:42.056Z,74.96
2023-02-17T10:45:36.975Z,75.08
2023-02-17T10:48:35.791Z,74.82
2023-02-17T10:51:29.455Z,75.29
2023-02-17T10:54:33.147Z,74.35
2023-02-17T10:57:27.005Z,74.71
2023-02-17T11:00:20.372Z,74.50
2023-02-17T11:03:21.746Z,74.63
2023-02-17T11:06:22.308Z,74.36
2023-02-17T11:09:23.409Z,73.30
2023-02-17T11:12:16.149Z,73.20
2023-02-17T11:15:15.873Z,71.72
2023-02-17T11:18:19.633Z,71.74
2023-02-17T11:21:12.536Z,70.11
2023-02-17T11:24:06.562Z,69.87
2023-02-17T11:27:02.263Z,68.87
2023-02-17T11:29:51.627Z,67.67
2023-02-17T11:32:40.894Z,67.40
2023-02-17T11:35:50.357Z,66.81
2023-02-17T11:38:46.538Z,65.65
2023-02-17T11:41:42.250Z,64.98
2023-02-17T11:44:31.466Z,65.29
2023-02-17T11:47:34.833Z,65.18
2023-02-17T11:50:41.351Z,64.63
2023-02-17T11:53:48.041Z,63.61
2023-02-17T11:56:40.650Z,62.93
2023-02-17T11:59:49.785Z,63.14
2023-02-17T12:03:05.962Z,61.58
2023-02-17T12:06:08.884Z,61.81
2023-02-17T12:09:13.011Z,61.44
2023-02-17T12:12:15.797Z,61.47
2023-02-17T12:15:26.127Z,61.41
2023-02-17T12:18:34.778Z,63.09
2023-02-17T12:21:49.473Z,65.51
2023-02-17T12:25:25.843Z,65.30
2023-02-17T12:28:42.339Z,66.45
2023-02-17T12:31:57.844Z,67.55
2023-02-17T12:34:56.025Z,68.12
2023-02-17T12:37:54.861Z,68.15
2023-02-17T12:40:51.878Z,68.75
2023-02-17T12:43:49.109Z,68.28
2023-02-17T12:46:43.861Z,67.16
2023-02-17T12:49:41.878Z,66.34
2023-02-17T12:52:37.902Z,63.57
2023-02-17T12:55:36.460Z,62.59
2023-02-17T12:58:28.954Z,61.04
2023-02-17T13:01:21.865Z,59.29
2023-02-17T13:04:20.229Z,58.79
2023-02-17T13:07:38.652Z,58.90
2023-02-17T13:10:36.403Z,58.95
2023-02-17T13:13:30.399Z,58.29
2023-02-17T13:16:19.779Z,58.43
2023-02-17T13:19:10.121Z,58.42
2023-02-17T13:22:03.415Z,57.53
2023-02-17T13:24:55.814Z,57.98
2023-02-17T13:27:45.047Z,57.40
2023-02-17T13:30:41.529Z,57.40
2023-02-17T13:33:32.913Z,57.88
2023-02-17T13:36:37.201Z,57.59
2023-02-17T13:39:39.336Z,57.34
2023-02-17T13:42:40.814Z,56.45
2023-02-17T13:45:34.632Z,56.83
2023-02-17T13:48:29.081Z,56.93
2023-02-17T13:51:29.080Z,56.81
2023-02-17T13:54:23.376Z,57.17
2023-02-17T13:57:28.013Z,57.05
2023-02-17T14:00:25.303Z,56.96
2023-02-17T14:03:22.665Z,57.00
2023-02-17T14:06:22.678Z,57.20
2023-02-17T14:09:24.732Z,57.70
2023-02-17T14:12:24.935Z,58.01
2023-02-17T14:15:18.733Z,58.72
2023-02-17T14:18:15.737Z,59.08
2023-02-17T14:21:11.702Z,60.01
2023-02-17T14:24:01.464Z,60.18
2023-02-17T14:26:53.585Z,60.05
2023-02-17T14:29:47.005Z,60.35
2023-02-17T14:32:38.958Z,60.63
2023-02-17T14:35:29.073Z,60.91
2023-02-17T14:38:24.362Z,60.73
2023-02-17T14:41:13.656Z,60.91
2023-02-17T14:44:03.273Z,61.05
2023-02-17T14:46:53.926Z,61.26
2023-02-17T14:49:43.090Z,61.53
2023-02-17T14:52:32.355Z,61.44
2023-02-17T14:55:34.238Z,61.93
2023-02-17T14:58:25.621Z,61.98
2023-02-17T15:01:17.894Z,62.02
2023-02-17T15:04:08.624Z,61.92
2023-02-17T15:06:57.993Z,61.98
2023-02-17T15:09:49.632Z,61.88
2023-02-17T15:12:38.980Z,61.93
2023-02-17T15:15:28.299Z,61.63
2023-02-17T15:18:20.303Z,61.58
2023-02-17T15:21:26.393Z,61.65
2023-02-17T15:24:21.096Z,61.61
2023-02-17T15:27:17.467Z,61.62
2023-02-17T15:30:11.157Z,61.37
2023-02-17T15:33:00.627Z,61.47
2023-02-17T15:35:53.781Z,61.19
2023-02-17T15:38:44.704Z,61.11
2023-02-17T15:41:34.103Z,61.49
2023-02-17T15:44:27.322Z,61.27
2023-02-17T15:47:20.672Z,61.18
2023-02-17T15:50:20.451Z,61.17
2023-02-17T15:53:10.108Z,61.29
2023-02-17T15:56:01.777Z,61.33
2023-02-17T15:58:52.073Z,61.59
2023-02-17T16:01:42.033Z,61.17
2023-02-17T16:04:31.664Z,61.29
2023-02-17T16:07:20.880Z,61.55
2023-02-17T16:10:14.908Z,61.33
2023-02-17T16:13:05.867Z,61.20
2023-02-17T16:15:58.904Z,61.32
2023-02-17T16:18:48.320Z,61.54
2023-02-17T16:21:37.742Z,61.57
2023-02-17T16:24:26.989Z,61.57
2023-02-17T16:27:18.019Z,61.73
2023-02-17T16:30:21.053Z,62.05
2023-02-17T16:33:12.083Z,62.52
2023-02-17T16:36:01.329Z,63.97
2023-02-17T16:38:51.806Z,65.31
2023-02-17T16:41:41.421Z,65.62
2023-02-17T16:44:30.724Z,67.28
2023-02-17T16:47:24.004Z,67.98
2023-02-17T16:50:23.428Z,69.28
2023-02-17T16:53:14.412Z,68.90
2023-02-17T16:56:15.793Z,70.69
2023-02-17T16:59:05.887Z,70.47
2023-02-17T17:01:55.517Z,71.80
2023-02-17T17:04:46.243Z,71.60
2023-02-17T17:07:35.636Z,72.10
2023-02-17T17:10:28.315Z,73.03
2023-02-17T17:13:17.599Z,73.72
2023-02-17T17:16:14.913Z,73.21
2023-02-17T17:19:05.156Z,73.16
2023-02-17T17:21:55.820Z,73.68
2023-02-17T17:24:45.142Z,73.42
2023-02-17T17:27:34.339Z,73.75
2023-02-17T17:30:28.667Z,73.61
2023-02-17T17:33:18.308Z,73.67
2023-02-17T17:36:20.780Z,74.13
2023-02-17T17:39:21.379Z,74.94
2023-02-17T17:42:11.810Z,74.43
2023-02-17T17:45:00.984Z,74.78
2023-02-17T17:47:50.192Z,75.19
2023-02-17T17:50:39.826Z,75.17
2023-02-17T17:53:29.586Z,75.12
2023-02-17T17:56:23.685Z,75.40
2023-02-17T17:59:14.698Z,75.34
2023-02-17T18:02:03.952Z,75.50
2023-02-17T18:04:53.315Z,75.44
2023-02-17T18:07:44.163Z,76.08
2023-02-17T18:10:33.783Z,78.29
2023-02-17T18:13:25.190Z,79.12
2023-02-17T18:16:14.900Z,80.91
2023-02-17T18:19:08.257Z,81.06
2023-02-17T18:21:57.724Z,81.40
2023-02-17T18:24:47.514Z,81.30
2023-02-17T18:27:42.711Z,81.91
2023-02-17T18:30:33.818Z,83.14
2023-02-17T18:33:23.325Z,84.11
2023-02-17T18:36:15.109Z,84.51
2023-02-17T18:39:05.134Z,84.47
2023-02-17T18:41:54.652Z,84.14
2023-02-17T18:44:43.830Z,84.51
2023-02-17T18:47:34.811Z,85.80
2023-02-17T18:50:24.158Z,86.03
2023-02-17T18:53:13.395Z,85.24
2023-02-17T18:56:02.846Z,85.46
2023-02-17T18:58:55.262Z,85.56
2023-02-17T19:01:45.198Z,85.12
2023-02-17T19:04:35.947Z,84.77
2023-02-17T19:07:25.421Z,83.91
2023-02-17T19:10:15.346Z,83.47
2023-02-17T19:13:04.564Z,83.13
2023-02-17T19:15:53.766Z,82.46
2023-02-17T19:18:44.085Z,82.42
2023-02-17T19:21:36.347Z,82.53
2023-02-17T19:24:26.139Z,82.15
2023-02-17T19:27:15.382Z,82.18
2023-02-17T19:30:05.084Z,82.04
2023-02-17T19:32:54.341Z,82.46
2023-02-17T19:35:45.518Z,82.30
2023-02-17T19:38:36.265Z,82.00
2023-02-17T19:41:25.632Z,81.56
2023-02-17T19:44:15.408Z,80.77
2023-02-17T19:47:04.668Z,80.28
2023-02-17T19:49:53.875Z,80.15
2023-02-17T19:52:43.106Z,79.62
2023-02-17T19:55:33.884Z,78.89
2023-02-17T19:58:23.144Z,78.61
2023-02-17T20:01:18.937Z,78.50
2023-02-17T20:04:09.067Z,78.30
2023-02-17T20:06:58.686Z,78.50
2023-02-17T20:09:47.902Z,78.65
2023-02-17T20:12:38.679Z,78.75
2023-02-17T20:15:28.145Z,78.71
2023-02-17T20:18:17.446Z,78.86
2023-02-17T20:21:08.919Z,78.79
2023-02-17T20:23:59.394Z,78.78
2023-02-17T20:26:51.003Z,79.07
2023-02-17T20:29:41.768Z,78.91
2023-02-17T20:32:31.077Z,78.70
2023-02-17T20:35:20.517Z,79.08
2023-02-17T20:38:10.244Z,79.53
2023-02-17T20:41:01.497Z,79.62
2023-02-17T20:43:51.806Z,80.18
2023-02-17T20:46:43.876Z,79.72
2023-02-17T20:49:33.184Z,79.76
2023-02-17T20:52:22.430Z,79.37
2023-02-17T20:55:12.406Z,79.22
2023-02-17T20:58:01.930Z,79.60
2023-02-17T21:00:51.289Z,79.03
2023-02-17T21:03:42.032Z,78.99
2023-02-17T21:06:35.292Z,78.94
2023-02-17T21:09:24.775Z,78.76
2023-02-17T21:12:14.017Z,78.19
2023-02-17T21:15:03.250Z,77.64
2023-02-17T21:17:52.799Z,77.02
2023-02-17T21:20:43.518Z,76.87
2023-02-17T21:23:32.842Z,76.18
2023-02-17T21:26:22.261Z,75.48
2023-02-17T21:29:11.747Z,75.15
2023-02-17T21:32:01.152Z,74.82
2023-02-17T21:34:50.491Z,74.65
2023-02-17T21:37:41.360Z,74.51
2023-02-17T21:40:30.774Z,74.00
2023-02-17T21:43:38.805Z,74.04
2023-02-17T21:46:30.335Z,73.66
2023-02-17T21:49:19.709Z,73.44
2023-02-17T21:52:09.241Z,73.35
2023-02-17T21:55:01.140Z,73.50
2023-02-17T21:57:51.068Z,73.37
2023-02-17T22:00:40.323Z,73.40
2023-02-17T22:03:29.785Z,73.42
2023-02-17T22:06:21.623Z,73.64
2023-02-17T22:09:14.712Z,73.87
2023-02-17T22:12:05.467Z,73.56
2023-02-17T22:14:54.610Z,73.44
2023-02-17T22:17:44.323Z,74.13
2023-02-17T22:20:33.525Z,74.46
2023-02-17T22:23:22.763Z,75.11
2023-02-17T22:26:14.549Z,75.46
2023-02-17T22:29:06.307Z,75.29
2023-02-17T22:31:56.251Z,75.73
2023-02-17T22:34:45.584Z,75.63
2023-02-17T22:37:34.858Z,76.29
2023-02-17T22:40:24.205Z,75.62
2023-02-17T22:43:13.526Z,75.52
2023-02-17T22:46:04.720Z,75.64
2023-02-17T22:48:55.884Z,75.70
2023-02-17T22:51:45.283Z,75.76
2023-02-17T22:54:34.730Z,75.17
2023-02-17T22:57:24.016Z,75.09
2023-02-17T23:00:14.821Z,75.17
2023-02-17T23:03:05.563Z,74.74
2023-02-17T23:05:59.871Z,74.79
2023-02-17T23:08:50.188Z,74.62
2023-02-17T23:11:51.503Z,74.60
2023-02-17T23:14:41.990Z,74.53
2023-02-17T23:17:52.023Z,74.60
2023-02-17T23:20:45.601Z,74.74
2023-02-17T23:23:34.813Z,74.61
2023-02-17T23:26:23.973Z,74.93
2023-02-17T23:29:13.331Z,75.02
2023-02-17T23:32:03.225Z,75.49
2023-02-17T23:34:52.487Z,76.87
2023-02-17T23:37:43.723Z,77.48
2023-02-17T23:40:32.945Z,78.06
2023-02-17T23:43:22.616Z,78.44
2023-02-17T23:46:12.055Z,78.66
2023-02-17T23:49:01.506Z,78.60
2023-02-17T23:51:50.665Z,78.67
2023-02-17T23:54:41.309Z,77.85
2023-02-17T23:57:30.581Z,78.45
